Henriette, Minnesota
Current Conditions -  °F | °C
As of 1:25 AM on Monday 22 Dec 2014 (Local Time) from KJMR Reporting Station
Overcast Overcast  
Wind Chill: 29°   Ceiling: 400
Heat Index: 34°   Visibility: 1.5mi
Dew Point: 34°   Wind: 6mph
Humidity: 100%   Direction: 140°SE
Pressure: 29.7"   Gusts: NA
Location:  45.87°N, 93.12°W
Report Text: KJMR 220725Z AUTO 14005KT 1 1/2SM OVC004 01/01 A2970 RMK AO2
Loading
Personal Weather Stations






























Interactive Weather Map New forecast layout! Learn more

10-Day Weather Forecast

Advertisements
Track Severe Weather on mobile